203-й пикет

Карта отелей и гостиниц, располагающихся рядом с аэропортом 203-й пикет :

203-й пикет Республика Коми 64° 19' 50.9988" N, 57° 22' 19.3188" E
203-й пикет Республика Коми 64° 19' 50.9988" N, 57° 22' 19.3188" E
Код аэродрома ИКАО
UUXD
Код аэродрома RU
УУЬД
Координаты
N64.33083° E057.37203°
Превышение над уровнем моря
110
Основная полоса
08/26
Курс магнитный
081,4/261,4
Длина основной ВПП
18
Ширина основной ВПП
18
Покрытие основной ВПП
Твёрдое (бетон)
Освещение ВПП
Нет
Тип: 
Вертодром
Класс аэродрома: 
Принадлежность: 
ГА
Статус: 
Действующий
Сайт: 
E-mail аэродрома: 
gazavia, gsp@mail.ru
Страна: 
Россия
Регион: 
Республика Коми
Город: 
Дополнительная информация: 
Оператор: ОАО «Севергазпром» Ухтинский филиал ООО Авиапредприятие «Газпромавиа». Взлет и посадка в секторе Ам 040°-140° с ПП2 запрещены.

Найти трансфер

С помощью этой формы Вы можете найти трансфер из аэропорта 203-й пикет в город, аэропорт или вокзал:

Карта места

Javascript is required to view this map.

Погода в аэропортах:

Авиационная погода в Николаеве

Регион: 
Погода METAR: 
UKON 060700Z 13005MPS 4500 BR SCT005 SCT///CB 06/06 Q1012 NOSIG
Время наблюдения
2021-12-06T07:00:00Z
Температура C
6.0
Точка росы
6.0
Направление ветра
130
Скорость ветра (узлы)
10
Метео видимость
2.8
Явления погоды
BR
Условия полета
IFR

Авиационная погода в Астане

Регион: 
Погода METAR: 
UACC 060800Z 23006MPS 5000 -DZ BR OVC004 00/M00 Q1017 TEMPO 1000 SHRASN BR BKN003 BKN015CB RMK QBB120 QFE731/0975
Время наблюдения
2021-12-06T08:00:00Z
Температура C
0.0
Точка росы
0.0
Направление ветра
230
Скорость ветра (узлы)
12
Метео видимость
3.11
Явления погоды
-DZ BR
Условия полета
LIFR
Аэропорт подробнее: 

Авиационная погода в Мирном

Регион: 
Погода METAR: 
UERR 060700Z 23005G10MPS 9999 DRSN FEW010 M28/M32 Q1006 R25/820442 NOSIG RMK QFE724/0965
Время наблюдения
2021-12-06T07:00:00Z
Температура C
-28.0
Точка росы
-32.0
Направление ветра
230
Скорость ветра (узлы)
10
Метео видимость
6.21
Явления погоды
DRSN
Условия полета
VFR
Аэропорт подробнее: 

Авиационная погода в Петропавловске

Регион: 
Погода METAR: 
UACP 060800Z 22004MPS 2400 SN BKN008 OVC033 M03/M04 Q1013 NOSIG RMK QFE747/0996
Время наблюдения
2021-12-06T08:00:00Z
Температура C
-3.0
Точка росы
-4.0
Направление ветра
220
Скорость ветра (узлы)
8
Метео видимость
1.49
Явления погоды
SN
Условия полета
IFR
Аэропорт подробнее: